Costigan, Maine
Current Conditions -  °F | °C
As of 11:53 AM on Thursday 18 Dec 2014 (Local Time) from KBGR Reporting Station
Haze Haze  
Wind Chill: 23°   Ceiling: 3500
Heat Index: 33°   Visibility: 3mi
Dew Point: 28°   Wind: 14mph
Humidity: 82%   Direction: 310°NW
Pressure: 29.61"   Gusts: 24mph
Location:  45.01°N, 68.64°W
Report Text: KBGR 181653Z 31012G21KT 3SM HZ FEW015 BKN035 OVC055 01/M02 A2961 RMK AO2 SFC VIS 4 SNE50 SLP029 P0000 T00061022
Loading
Personal Weather Stations






























Interactive Weather Map New forecast layout! Learn more

10-Day Weather Forecast

Advertisements
Track Severe Weather on mobile